createdAt,value
2023-12-18T00:00:16.191Z,1028.3
2023-12-18T00:01:21.053Z,1028.3
2023-12-18T00:02:24.370Z,1028.28
2023-12-18T00:04:31.106Z,1028.26
2023-12-18T00:05:36.046Z,1028.3
2023-12-18T00:06:39.625Z,1028.3
2023-12-18T00:07:44.072Z,1028.31
2023-12-18T00:08:47.512Z,1028.33
2023-12-18T00:09:50.866Z,1028.31
2023-12-18T00:10:54.155Z,1028.37
2023-12-18T00:11:59.006Z,1028.48
2023-12-18T00:13:03.821Z,1028.52
2023-12-18T00:14:07.145Z,1028.52
2023-12-18T00:17:17.086Z,1028.28
2023-12-18T00:18:20.717Z,1028.28
2023-12-18T00:21:31.224Z,1028.46
2023-12-18T00:22:34.494Z,1028.37
2023-12-18T00:23:37.798Z,1028.48
2023-12-18T00:24:41.186Z,1028.31
2023-12-18T00:25:44.542Z,1028.46
2023-12-18T00:26:47.838Z,1028.5
2023-12-18T00:27:52.519Z,1028.46
2023-12-18T00:28:56.061Z,1028.31
2023-12-18T00:29:59.507Z,1028.33
2023-12-18T00:31:03.078Z,1028.37
2023-12-18T00:32:06.467Z,1028.28
2023-12-18T00:33:10.361Z,1028.22
2023-12-18T00:35:18.928Z,1028.26
2023-12-18T00:36:23.883Z,1028.28
2023-12-18T00:38:30.298Z,1028.24
2023-12-18T00:39:33.633Z,1028.24
2023-12-18T00:40:37.005Z,1028.28
2023-12-18T00:41:41.821Z,1028.3
2023-12-18T00:42:45.112Z,1028.24
2023-12-18T00:43:52.253Z,1028.26
2023-12-18T00:44:55.458Z,1028.26
2023-12-18T00:45:58.856Z,1028.26
2023-12-18T00:47:02.093Z,1028.2
2023-12-18T00:48:05.735Z,1028.22
2023-12-18T00:49:09.530Z,1028.22
2023-12-18T00:51:16.787Z,1028.18
2023-12-18T00:52:20.107Z,1028.14
2023-12-18T00:53:23.345Z,1028.16
2023-12-18T00:55:30.044Z,1028.18
2023-12-18T00:56:33.390Z,1028.2
2023-12-18T00:57:36.797Z,1028.2
2023-12-18T00:58:40.138Z,1028.2
2023-12-18T00:59:43.383Z,1028.24
2023-12-18T01:00:48.401Z,1028.24
2023-12-18T01:01:51.833Z,1028.22
2023-12-18T01:02:55.138Z,1028.22
2023-12-18T01:04:00.049Z,1028.28
2023-12-18T01:05:03.661Z,1028.28
2023-12-18T01:06:07.095Z,1028.22
2023-12-18T01:08:15.176Z,1028.2
2023-12-18T01:09:18.509Z,1028.22
2023-12-18T01:10:21.917Z,1028.18
2023-12-18T01:12:28.593Z,1028.24
2023-12-18T01:13:31.977Z,1028.26
2023-12-18T01:14:35.400Z,1028.26
2023-12-18T01:15:38.950Z,1028.26
2023-12-18T01:16:42.261Z,1028.22
2023-12-18T01:17:46.657Z,1028.24
2023-12-18T01:18:50.810Z,1028.24
2023-12-18T01:19:54.462Z,1028.26
2023-12-18T01:20:57.805Z,1028.28
2023-12-18T01:22:01.050Z,1028.22
2023-12-18T01:23:05.624Z,1028.24
2023-12-18T01:24:08.965Z,1028.28
2023-12-18T01:29:27.919Z,1028.31
2023-12-18T01:30:31.393Z,1028.33
2023-12-18T01:31:34.909Z,1028.37
2023-12-18T01:32:38.526Z,1028.35
2023-12-18T01:33:42.261Z,1028.31
2023-12-18T01:34:47.101Z,1028.31
2023-12-18T01:35:50.355Z,1028.3
2023-12-18T01:36:53.605Z,1028.3
2023-12-18T01:37:58.420Z,1028.3
2023-12-18T01:39:01.731Z,1028.31
2023-12-18T01:40:07.027Z,1028.37
2023-12-18T01:42:13.564Z,1028.28
2023-12-18T01:43:18.429Z,1028.18
2023-12-18T01:44:21.678Z,1028.18
2023-12-18T01:47:31.614Z,1028.33
2023-12-18T01:48:37.141Z,1028.3
2023-12-18T01:49:42.326Z,1028.28
2023-12-18T01:50:45.680Z,1028.35
2023-12-18T01:51:49.045Z,1028.33
2023-12-18T01:52:52.328Z,1028.31
2023-12-18T01:53:55.642Z,1028.33
2023-12-18T01:54:58.924Z,1028.31
2023-12-18T01:56:02.251Z,1028.28
2023-12-18T01:57:05.598Z,1028.31
2023-12-18T01:58:09.006Z,1028.48
2023-12-18T02:00:15.769Z,1028.26
2023-12-18T02:01:19.283Z,1028.2
2023-12-18T02:02:22.739Z,1028.3
2023-12-18T02:04:29.807Z,1028.31
2023-12-18T02:05:33.240Z,1028.2
2023-12-18T02:06:36.744Z,1028.22
2023-12-18T02:07:40.981Z,1028.28
2023-12-18T02:08:44.528Z,1028.26
2023-12-18T02:09:47.812Z,1028.22
2023-12-18T02:10:53.107Z,1028.14
2023-12-18T02:11:56.317Z,1028.1
2023-12-18T02:12:59.549Z,1028.12
2023-12-18T02:14:02.748Z,1028.18
2023-12-18T02:15:06.259Z,1028.22
2023-12-18T02:16:09.585Z,1028.24
2023-12-18T02:18:16.642Z,1028.16
2023-12-18T02:19:20.183Z,1028.18
2023-12-18T02:20:23.520Z,1028.28
2023-12-18T02:22:30.400Z,1028.31
2023-12-18T02:23:33.696Z,1028.28
2023-12-18T02:24:37.843Z,1028.3
2023-12-18T02:25:41.707Z,1028.28
2023-12-18T02:26:45.030Z,1028.3
2023-12-18T02:27:48.412Z,1028.3
2023-12-18T02:28:51.957Z,1028.3
2023-12-18T02:29:55.304Z,1028.33
2023-12-18T02:30:59.130Z,1028.3
2023-12-18T02:32:04.113Z,1028.31
2023-12-18T02:33:08.112Z,1028.31
2023-12-18T02:35:15.451Z,1028.35
2023-12-18T02:36:19.269Z,1028.37
2023-12-18T02:37:22.835Z,1028.48
2023-12-18T02:39:29.489Z,1028.37
2023-12-18T02:40:32.796Z,1028.46
2023-12-18T02:41:36.290Z,1028.37
2023-12-18T02:42:39.872Z,1028.35
2023-12-18T02:43:43.156Z,1028.33
2023-12-18T02:44:48.391Z,1028.31
2023-12-18T02:45:51.648Z,1028.35
2023-12-18T02:46:55.037Z,1028.35
2023-12-18T02:47:58.444Z,1028.37
2023-12-18T02:49:02.136Z,1028.31
2023-12-18T02:50:05.472Z,1028.33
2023-12-18T02:51:08.862Z,1028.28
2023-12-18T02:53:15.465Z,1028.26
2023-12-18T02:54:18.803Z,1028.31
2023-12-18T02:55:22.257Z,1028.3
2023-12-18T02:57:28.812Z,1028.31
2023-12-18T02:58:32.192Z,1028.3
2023-12-18T02:59:35.624Z,1028.3
2023-12-18T03:00:39.064Z,1028.3
2023-12-18T03:01:42.428Z,1028.3
2023-12-18T03:02:45.777Z,1028.3
2023-12-18T03:03:49.355Z,1028.3
2023-12-18T03:04:52.864Z,1028.3
2023-12-18T03:05:56.208Z,1028.3
2023-12-18T03:06:59.395Z,1028.33
2023-12-18T03:08:02.677Z,1028.3
2023-12-18T03:09:06.169Z,1028.3
2023-12-18T03:12:15.996Z,1028.31
2023-12-18T03:13:19.363Z,1028.28
2023-12-18T03:15:27.413Z,1028.33
2023-12-18T03:16:30.749Z,1028.35
2023-12-18T03:17:34.078Z,1028.37
2023-12-18T03:18:37.875Z,1028.46
2023-12-18T03:19:41.949Z,1028.37
2023-12-18T03:20:45.361Z,1028.46
2023-12-18T03:21:48.796Z,1028.37
2023-12-18T03:22:52.162Z,1028.37
2023-12-18T03:23:55.410Z,1028.35
2023-12-18T03:24:58.767Z,1028.35
2023-12-18T03:26:03.043Z,1028.33
2023-12-18T03:27:06.383Z,1028.37
2023-12-18T03:29:14.394Z,1028.33
2023-12-18T03:30:17.932Z,1028.35
2023-12-18T03:33:29.966Z,1028.35
2023-12-18T03:34:34.047Z,1028.46
2023-12-18T03:35:37.429Z,1028.46
2023-12-18T03:36:40.836Z,1028.48
2023-12-18T03:37:44.771Z,1028.35
2023-12-18T03:38:49.657Z,1028.33
2023-12-18T03:39:52.874Z,1028.33
2023-12-18T03:40:56.229Z,1028.31
2023-12-18T03:42:01.060Z,1028.3
2023-12-18T03:43:04.283Z,1028.3
2023-12-18T03:44:07.610Z,1028.31
2023-12-18T03:46:14.245Z,1028.28
2023-12-18T03:47:17.573Z,1028.22
2023-12-18T03:48:21.514Z,1028.18
2023-12-18T03:50:31.479Z,1028.12
2023-12-18T03:51:34.764Z,1028.12
2023-12-18T03:52:38.043Z,1028.08
2023-12-18T03:53:41.299Z,1028
2023-12-18T03:54:45.020Z,1028.04
2023-12-18T03:55:48.388Z,1028
2023-12-18T03:56:51.798Z,1028.02
2023-12-18T03:57:56.832Z,1028.04
2023-12-18T03:59:01.632Z,1028.04
2023-12-18T04:00:06.530Z,1028.06
2023-12-18T04:02:13.296Z,1028.02
2023-12-18T04:03:16.948Z,1028.02
2023-12-18T04:04:20.797Z,1028
2023-12-18T04:06:29.283Z,1027.98
2023-12-18T04:07:32.684Z,1027.96
2023-12-18T04:08:35.925Z,1027.94
2023-12-18T04:09:39.534Z,1027.92
2023-12-18T04:10:43.019Z,1027.88
2023-12-18T04:11:46.354Z,1027.86
2023-12-18T04:12:49.862Z,1027.84
2023-12-18T04:13:53.157Z,1027.83
2023-12-18T04:14:56.444Z,1027.84
2023-12-18T04:16:01.754Z,1027.84
2023-12-18T04:17:04.978Z,1027.84
2023-12-18T04:18:08.841Z,1027.83
2023-12-18T04:20:15.798Z,1027.79
2023-12-18T04:21:19.474Z,1027.81
2023-12-18T04:24:29.259Z,1027.81
2023-12-18T04:25:32.598Z,1027.81
2023-12-18T04:26:35.903Z,1027.81
2023-12-18T04:27:39.614Z,1027.79
2023-12-18T04:28:43.202Z,1027.79
2023-12-18T04:29:47.980Z,1027.81
2023-12-18T04:30:51.503Z,1027.77
2023-12-18T04:31:54.872Z,1027.77
2023-12-18T04:32:58.522Z,1027.73
2023-12-18T04:34:02.208Z,1027.73
2023-12-18T04:35:05.644Z,1027.71
2023-12-18T04:38:15.915Z,1027.63
2023-12-18T04:39:20.816Z,1027.63
2023-12-18T04:41:27.190Z,1027.63
2023-12-18T04:42:30.561Z,1027.67
2023-12-18T04:43:34.697Z,1027.65
2023-12-18T04:44:38.060Z,1027.67
2023-12-18T04:45:41.503Z,1027.63
2023-12-18T04:46:44.827Z,1027.63
2023-12-18T04:47:48.406Z,1027.63
2023-12-18T04:48:52.218Z,1027.61
2023-12-18T04:49:55.941Z,1027.61
2023-12-18T04:50:59.353Z,1027.59
2023-12-18T04:52:02.886Z,1027.59
2023-12-18T04:53:06.183Z,1027.63
2023-12-18T04:55:14.398Z,1027.61
2023-12-18T04:56:19.220Z,1027.63
2023-12-18T04:59:29.232Z,1027.59
2023-12-18T05:00:32.778Z,1027.59
2023-12-18T05:01:36.188Z,1027.59
2023-12-18T05:02:40.616Z,1027.63
2023-12-18T05:03:44.431Z,1027.57
2023-12-18T05:04:48.026Z,1027.55
2023-12-18T05:05:51.626Z,1027.57
2023-12-18T05:06:54.935Z,1027.59
2023-12-18T05:07:58.208Z,1027.57
2023-12-18T05:09:01.452Z,1027.63
2023-12-18T05:10:04.721Z,1027.65
2023-12-18T05:11:07.971Z,1027.65
2023-12-18T05:13:14.466Z,1027.67
2023-12-18T05:14:19.270Z,1027.65
2023-12-18T05:17:29.253Z,1027.65
2023-12-18T05:18:32.936Z,1027.63
2023-12-18T05:19:38.087Z,1027.59
2023-12-18T05:20:41.321Z,1027.59
2023-12-18T05:21:44.771Z,1027.57
2023-12-18T05:22:48.165Z,1027.61
2023-12-18T05:23:51.464Z,1027.63
2023-12-18T05:24:54.724Z,1027.67
2023-12-18T05:25:59.496Z,1027.69
2023-12-18T05:27:02.762Z,1027.75
2023-12-18T05:28:06.011Z,1027.79
2023-12-18T05:30:13.054Z,1027.75
2023-12-18T05:31:16.830Z,1027.81
2023-12-18T05:32:20.369Z,1027.84
2023-12-18T05:35:34.719Z,1027.86
2023-12-18T05:36:38.185Z,1027.86
2023-12-18T05:37:41.514Z,1027.86
2023-12-18T05:38:44.889Z,1027.84
2023-12-18T05:39:48.347Z,1027.88
2023-12-18T05:40:51.762Z,1027.88
2023-12-18T05:41:55.083Z,1027.9
2023-12-18T05:42:58.484Z,1027.92
2023-12-18T05:44:01.815Z,1027.98
2023-12-18T05:45:05.149Z,1027.98
2023-12-18T05:48:15.564Z,1027.98
2023-12-18T05:49:19.221Z,1027.98
2023-12-18T05:51:26.191Z,1027.96
2023-12-18T05:52:29.465Z,1027.98
2023-12-18T05:53:32.740Z,1027.94
2023-12-18T05:54:36.163Z,1027.9
2023-12-18T05:55:39.510Z,1027.88
2023-12-18T05:56:42.815Z,1027.86
2023-12-18T05:57:47.918Z,1027.9
2023-12-18T05:58:51.165Z,1027.92
2023-12-18T05:59:54.453Z,1027.94
2023-12-18T06:01:03.387Z,1027.96
2023-12-18T06:02:06.707Z,1027.9
2023-12-18T06:04:13.910Z,1027.88
2023-12-18T06:05:17.213Z,1027.86
2023-12-18T06:06:20.792Z,1027.86
2023-12-18T06:08:27.354Z,1027.83
2023-12-18T06:09:30.768Z,1027.84
2023-12-18T06:10:34.113Z,1027.84
2023-12-18T06:11:37.447Z,1027.86
2023-12-18T06:12:41.865Z,1027.84
2023-12-18T06:13:46.883Z,1027.81
2023-12-18T06:14:50.087Z,1027.84
2023-12-18T06:15:53.548Z,1027.86
2023-12-18T06:16:56.952Z,1027.81
2023-12-18T06:18:02.056Z,1027.92
2023-12-18T06:19:05.621Z,1027.92
2023-12-18T06:21:12.368Z,1027.9
2023-12-18T06:22:15.687Z,1027.88
2023-12-18T06:23:18.914Z,1027.84
2023-12-18T06:25:25.565Z,1027.88
2023-12-18T06:26:28.916Z,1027.86
2023-12-18T06:27:32.361Z,1027.84
2023-12-18T06:28:35.718Z,1027.84
2023-12-18T06:29:38.995Z,1027.84
2023-12-18T06:30:42.472Z,1027.86
2023-12-18T06:31:46.293Z,1027.88
2023-12-18T06:32:50.727Z,1027.92
2023-12-18T06:33:54.376Z,1027.94
2023-12-18T06:34:58.009Z,1027.96
2023-12-18T06:36:01.465Z,1027.9
2023-12-18T06:37:04.780Z,1027.9
2023-12-18T06:40:14.440Z,1027.9
2023-12-18T06:41:17.716Z,1027.9
2023-12-18T06:42:21.107Z,1027.88
2023-12-18T06:44:27.822Z,1027.84
2023-12-18T06:45:32.743Z,1027.84
2023-12-18T06:46:36.052Z,1027.84
2023-12-18T06:47:39.445Z,1027.88
2023-12-18T06:48:43.735Z,1027.88
2023-12-18T06:49:47.548Z,1027.86
2023-12-18T06:50:50.898Z,1027.88
2023-12-18T06:51:54.320Z,1027.88
2023-12-18T06:52:57.653Z,1027.9
2023-12-18T06:54:01.013Z,1027.88
2023-12-18T06:55:04.367Z,1027.9
2023-12-18T06:57:14.095Z,1027.88
2023-12-18T06:58:17.394Z,1027.9
2023-12-18T06:59:20.645Z,1027.9
2023-12-18T07:02:42.745Z,1027.94
2023-12-18T07:03:46.476Z,1027.9
2023-12-18T07:04:49.963Z,1027.96
2023-12-18T07:05:53.315Z,1027.96
2023-12-18T07:06:56.657Z,1027.98
2023-12-18T07:07:59.947Z,1027.96
2023-12-18T07:09:04.877Z,1027.98
2023-12-18T07:12:14.963Z,1027.98
2023-12-18T07:13:19.803Z,1027.96
2023-12-18T07:15:27.437Z,1028.02
2023-12-18T07:16:30.724Z,1028.02
2023-12-18T07:17:35.738Z,1028.04
2023-12-18T07:18:39.302Z,1028.04
2023-12-18T07:19:42.759Z,1028.06
2023-12-18T07:20:45.988Z,1028.04
2023-12-18T07:21:50.586Z,1028.08
2023-12-18T07:22:55.579Z,1028.1
2023-12-18T07:23:58.824Z,1028.1
2023-12-18T07:25:02.079Z,1028.16
2023-12-18T07:26:05.279Z,1028.16
2023-12-18T07:29:15.169Z,1028.22
2023-12-18T07:30:18.853Z,1028.2
2023-12-18T07:32:25.521Z,1028.2
2023-12-18T07:33:29.097Z,1028.24
2023-12-18T07:34:32.907Z,1028.2
2023-12-18T07:35:36.235Z,1028.22
2023-12-18T07:36:39.565Z,1028.2
2023-12-18T07:37:42.877Z,1028.22
2023-12-18T07:38:48.395Z,1028.22
2023-12-18T07:39:53.147Z,1028.24
2023-12-18T07:40:56.501Z,1028.2
2023-12-18T07:41:59.809Z,1028.2
2023-12-18T07:43:03.017Z,1028.22
2023-12-18T07:44:06.388Z,1028.24
2023-12-18T07:47:16.207Z,1028.28
2023-12-18T07:48:19.988Z,1028.28
2023-12-18T07:50:26.896Z,1028.31
2023-12-18T07:51:30.321Z,1028.28
2023-12-18T07:52:33.572Z,1028.3
2023-12-18T07:53:36.817Z,1028.28
2023-12-18T07:54:40.401Z,1028.26
2023-12-18T07:55:43.751Z,1028.3
2023-12-18T07:56:48.508Z,1028.31
2023-12-18T07:57:51.830Z,1028.3
2023-12-18T07:58:55.186Z,1028.35
2023-12-18T07:59:58.483Z,1028.35
2023-12-18T08:01:03.553Z,1028.46
2023-12-18T08:02:06.898Z,1028.35
2023-12-18T08:04:13.893Z,1028.48
2023-12-18T08:05:17.332Z,1028.5
2023-12-18T08:06:20.718Z,1028.37
2023-12-18T08:08:27.170Z,1028.48
2023-12-18T08:09:31.308Z,1028.46
2023-12-18T08:10:34.687Z,1028.5
2023-12-18T08:11:39.554Z,1028.5
2023-12-18T08:12:44.013Z,1028.54
2023-12-18T08:13:47.468Z,1028.52
2023-12-18T08:14:50.764Z,1028.58
2023-12-18T08:15:53.999Z,1028.5
2023-12-18T08:16:57.231Z,1028.5
2023-12-18T08:18:00.872Z,1028.54
2023-12-18T08:19:04.949Z,1028.56
2023-12-18T08:21:13.029Z,1028.58
2023-12-18T08:22:16.379Z,1028.58
2023-12-18T08:23:19.648Z,1028.56
2023-12-18T08:27:34.106Z,1028.52
2023-12-18T08:28:40.460Z,1028.5
2023-12-18T08:29:45.254Z,1028.5
2023-12-18T08:30:48.699Z,1028.48
2023-12-18T08:31:52.057Z,1028.52
2023-12-18T08:32:55.571Z,1028.5
2023-12-18T08:34:00.918Z,1028.52
2023-12-18T08:35:04.233Z,1028.52
2023-12-18T08:37:10.856Z,1028.5
2023-12-18T08:38:14.143Z,1028.48
2023-12-18T08:39:17.477Z,1028.37
2023-12-18T08:43:31.700Z,1028.46
2023-12-18T08:44:34.942Z,1028.46
2023-12-18T08:45:38.385Z,1028.46
2023-12-18T08:46:41.692Z,1028.46
2023-12-18T08:47:45.293Z,1028.33
2023-12-18T08:48:50.491Z,1028.35
2023-12-18T08:49:53.778Z,1028.35
2023-12-18T08:50:57.133Z,1028.37
2023-12-18T08:52:00.750Z,1028.37
2023-12-18T08:53:04.208Z,1028.5
2023-12-18T08:55:10.933Z,1028.46
2023-12-18T08:56:14.185Z,1028.37
2023-12-18T08:57:17.600Z,1028.48
2023-12-18T08:59:25.869Z,1028.46
2023-12-18T09:00:29.391Z,1028.46
2023-12-18T09:01:33.072Z,1028.48
2023-12-18T09:02:36.457Z,1028.5
2023-12-18T09:03:40.034Z,1028.37
2023-12-18T09:04:43.512Z,1028.35
2023-12-18T09:05:48.433Z,1028.48
2023-12-18T09:06:51.755Z,1028.48
2023-12-18T09:07:55.090Z,1028.5
2023-12-18T09:08:58.388Z,1028.48
2023-12-18T09:10:01.685Z,1028.48
2023-12-18T09:11:05.073Z,1028.48
2023-12-18T09:13:11.938Z,1028.37
2023-12-18T09:14:15.254Z,1028.35
2023-12-18T09:15:18.727Z,1028.33
2023-12-18T09:17:25.351Z,1028.3
2023-12-18T09:18:28.995Z,1028.3
2023-12-18T09:19:33.020Z,1028.26
2023-12-18T09:20:36.391Z,1028.26
2023-12-18T09:21:39.741Z,1028.31
2023-12-18T09:22:43.871Z,1028.28
2023-12-18T09:23:47.306Z,1028.3
2023-12-18T09:24:50.791Z,1028.3
2023-12-18T09:25:54.116Z,1028.3
2023-12-18T09:26:57.358Z,1028.26
2023-12-18T09:28:00.675Z,1028.24
2023-12-18T09:29:04.270Z,1028.22
2023-12-18T09:31:15.252Z,1028.18
2023-12-18T09:32:18.829Z,1028.2
2023-12-18T09:35:30.939Z,1028.24
2023-12-18T09:36:34.317Z,1028.24
2023-12-18T09:37:37.661Z,1028.18
2023-12-18T09:38:41.182Z,1028.26
2023-12-18T09:39:44.732Z,1028.24
2023-12-18T09:40:48.142Z,1028.18
2023-12-18T09:41:51.323Z,1028.18
2023-12-18T09:42:54.887Z,1028.18
2023-12-18T09:43:58.351Z,1028.18
2023-12-18T09:45:01.654Z,1028.18
2023-12-18T09:47:10.832Z,1028.02
2023-12-18T09:48:20.057Z,1028.14
2023-12-18T09:51:31.924Z,1028.04
2023-12-18T09:52:35.201Z,1028.06
2023-12-18T09:53:38.420Z,1028.02
2023-12-18T09:54:41.739Z,1028.06
2023-12-18T09:55:45.008Z,1028.04
2023-12-18T09:56:48.310Z,1027.96
2023-12-18T09:57:51.723Z,1027.98
2023-12-18T09:58:55.105Z,1027.96
2023-12-18T09:59:58.402Z,1027.96
2023-12-18T10:01:03.413Z,1027.94
2023-12-18T10:03:10.590Z,1027.94
2023-12-18T10:04:14.219Z,1027.9
2023-12-18T10:05:17.605Z,1027.88
2023-12-18T10:07:24.355Z,1027.88
2023-12-18T10:08:27.645Z,1027.84
2023-12-18T10:09:30.959Z,1027.86
2023-12-18T10:10:34.290Z,1027.86
2023-12-18T10:11:39.195Z,1027.81
2023-12-18T10:12:43.264Z,1027.79
2023-12-18T10:13:48.184Z,1027.81
2023-12-18T10:14:51.431Z,1027.79
2023-12-18T10:15:54.879Z,1027.83
2023-12-18T10:16:58.214Z,1027.86
2023-12-18T10:18:01.722Z,1027.84
2023-12-18T10:19:05.405Z,1027.88
2023-12-18T10:21:12.526Z,1027.86
2023-12-18T10:22:15.880Z,1027.9
2023-12-18T10:23:19.148Z,1027.9
2023-12-18T10:28:40.471Z,1027.81
2023-12-18T10:29:43.802Z,1027.75
2023-12-18T10:30:48.850Z,1027.71
2023-12-18T10:31:52.461Z,1027.71
2023-12-18T10:32:57.453Z,1027.65
2023-12-18T10:34:01.137Z,1027.63
2023-12-18T10:35:04.653Z,1027.65
2023-12-18T10:37:11.386Z,1027.57
2023-12-18T10:38:14.702Z,1027.57
2023-12-18T10:39:18.038Z,1027.53
2023-12-18T10:41:24.381Z,1027.53
2023-12-18T10:42:27.769Z,1027.53
2023-12-18T10:43:31.112Z,1027.55
2023-12-18T10:44:34.404Z,1027.51
2023-12-18T10:45:38.855Z,1027.51
2023-12-18T10:46:43.811Z,1027.55
2023-12-18T10:47:47.099Z,1027.49
2023-12-18T10:48:50.834Z,1027.51
2023-12-18T10:49:59.892Z,1027.53
2023-12-18T10:51:04.205Z,1027.53
2023-12-18T10:52:07.491Z,1027.55
2023-12-18T10:53:10.737Z,1027.55
2023-12-18T10:54:14.060Z,1027.53
2023-12-18T10:55:17.387Z,1027.49
2023-12-18T10:56:20.704Z,1027.49
2023-12-18T10:57:24.013Z,1027.47
2023-12-18T10:58:28.746Z,1027.47
2023-12-18T10:59:31.999Z,1027.47
2023-12-18T11:00:35.573Z,1027.49
2023-12-18T11:01:40.441Z,1027.49
2023-12-18T11:02:45.348Z,1027.51
2023-12-18T11:03:48.992Z,1027.45
2023-12-18T11:04:52.466Z,1027.39
2023-12-18T11:05:55.998Z,1027.39
2023-12-18T11:07:00.849Z,1027.39
2023-12-18T11:08:05.706Z,1027.37
2023-12-18T11:10:13.719Z,1027.37
2023-12-18T11:11:17.050Z,1027.41
2023-12-18T11:13:23.670Z,1027.39
2023-12-18T11:14:27.021Z,1027.39
2023-12-18T11:15:30.458Z,1027.41
2023-12-18T11:16:33.888Z,1027.39
2023-12-18T11:17:37.501Z,1027.35
2023-12-18T11:18:41.509Z,1027.32
2023-12-18T11:19:45.474Z,1027.39
2023-12-18T11:20:48.836Z,1027.39
2023-12-18T11:21:52.302Z,1027.39
2023-12-18T11:22:55.739Z,1027.37
2023-12-18T11:24:08.190Z,1027.39
2023-12-18T11:26:17.893Z,1027.39
2023-12-18T11:29:29.171Z,1027.32
2023-12-18T11:30:32.760Z,1027.37
2023-12-18T11:31:36.315Z,1027.33
2023-12-18T11:32:40.503Z,1027.28
2023-12-18T11:33:55.062Z,1027.3
2023-12-18T11:34:58.766Z,1027.33
2023-12-18T11:36:02.110Z,1027.3
2023-12-18T11:37:05.462Z,1027.3
2023-12-18T11:43:26.765Z,1027.18
2023-12-18T11:44:34.456Z,1027.2
2023-12-18T11:45:37.927Z,1027.16
2023-12-18T11:46:41.188Z,1027.12
2023-12-18T11:47:44.667Z,1027.12
2023-12-18T11:48:48.902Z,1027.08
2023-12-18T11:49:52.722Z,1027.04
2023-12-18T11:50:56.341Z,1027.06
2023-12-18T11:51:59.748Z,1027.06
2023-12-18T11:53:03.128Z,1027.06
2023-12-18T11:57:16.826Z,1027
2023-12-18T11:58:20.183Z,1026.98
2023-12-18T11:59:23.519Z,1026.98
2023-12-18T12:00:26.982Z,1026.94
2023-12-18T12:01:30.679Z,1026.94
2023-12-18T12:02:35.001Z,1026.92
2023-12-18T12:03:39.231Z,1026.94
2023-12-18T12:04:44.493Z,1026.92
2023-12-18T12:05:47.803Z,1026.88
2023-12-18T12:06:51.119Z,1026.9
2023-12-18T12:07:56.535Z,1026.88
2023-12-18T12:08:59.935Z,1026.88
2023-12-18T12:10:03.246Z,1026.82
2023-12-18T12:13:13.152Z,1026.75
2023-12-18T12:14:16.399Z,1026.79
2023-12-18T12:17:27.007Z,1026.81
2023-12-18T12:18:31.044Z,1026.79
2023-12-18T12:19:35.149Z,1026.81
2023-12-18T12:20:38.728Z,1026.77
2023-12-18T12:21:48.620Z,1026.71
2023-12-18T12:22:51.821Z,1026.69
2023-12-18T12:23:55.079Z,1026.69
2023-12-18T12:25:00.225Z,1026.67
2023-12-18T12:26:03.752Z,1026.67
2023-12-18T12:27:07.006Z,1026.67
2023-12-18T12:28:10.289Z,1026.63
2023-12-18T12:29:13.733Z,1026.63
2023-12-18T12:30:17.260Z,1026.65
2023-12-18T12:31:21.315Z,1026.59
2023-12-18T12:32:26.401Z,1026.61
2023-12-18T12:33:30.307Z,1026.61
2023-12-18T12:34:35.348Z,1026.59
2023-12-18T12:35:38.664Z,1026.57
2023-12-18T12:36:42.067Z,1026.57
2023-12-18T12:37:46.891Z,1026.55
2023-12-18T12:38:50.168Z,1026.57
2023-12-18T12:39:53.629Z,1026.55
2023-12-18T12:40:58.512Z,1026.57
2023-12-18T12:42:01.807Z,1026.45
2023-12-18T12:43:05.046Z,1026.47
2023-12-18T12:48:36.772Z,1026.45
2023-12-18T12:49:40.672Z,1026.49
2023-12-18T12:50:44.008Z,1026.53
2023-12-18T12:51:47.362Z,1026.51
2023-12-18T12:52:50.704Z,1026.47
2023-12-18T12:53:54.081Z,1026.53
2023-12-18T12:54:57.462Z,1026.51
2023-12-18T12:56:01.031Z,1026.45
2023-12-18T12:57:04.366Z,1026.45
2023-12-18T12:58:07.629Z,1026.45
2023-12-18T13:00:16.184Z,1026.41
2023-12-18T13:03:26.439Z,1026.39
2023-12-18T13:04:30.481Z,1026.37
2023-12-18T13:05:34.094Z,1026.43
2023-12-18T13:06:37.761Z,1026.45
2023-12-18T13:07:43.441Z,1026.49
2023-12-18T13:08:46.895Z,1026.49
2023-12-18T13:09:50.385Z,1026.51
2023-12-18T13:10:53.746Z,1026.47
2023-12-18T13:11:57.030Z,1026.49
2023-12-18T13:13:00.462Z,1026.53
2023-12-18T13:15:16.981Z,1026.49
2023-12-18T13:16:20.270Z,1026.47
2023-12-18T13:17:23.650Z,1026.49
2023-12-18T13:18:29.729Z,1026.45
2023-12-18T13:19:33.436Z,1026.47
2023-12-18T13:20:37.524Z,1026.39
2023-12-18T13:21:41.131Z,1026.39
2023-12-18T13:22:45.554Z,1026.41
2023-12-18T13:23:48.748Z,1026.39
2023-12-18T13:24:52.405Z,1026.37
2023-12-18T13:25:55.832Z,1026.39
2023-12-18T13:26:59.159Z,1026.35
2023-12-18T13:28:02.620Z,1026.34
2023-12-18T13:31:14.340Z,1026.24
2023-12-18T13:32:17.910Z,1026.18
2023-12-18T13:34:25.013Z,1026.16
2023-12-18T13:35:28.521Z,1026.14
2023-12-18T13:36:32.163Z,1026.12
2023-12-18T13:37:35.456Z,1026.08
2023-12-18T13:38:38.694Z,1026.1
2023-12-18T13:39:42.079Z,1026.08
2023-12-18T13:40:45.431Z,1026.08
2023-12-18T13:41:48.694Z,1026.08
2023-12-18T13:42:52.464Z,1026.04
2023-12-18T13:43:55.840Z,1026.02
2023-12-18T13:44:59.106Z,1025.98
2023-12-18T13:46:02.641Z,1025.98
2023-12-18T13:48:09.588Z,1025.94
2023-12-18T13:49:13.407Z,1025.96
2023-12-18T13:50:16.790Z,1025.98
2023-12-18T13:52:23.471Z,1026
2023-12-18T13:53:26.792Z,1025.98
2023-12-18T13:54:30.368Z,1025.94
2023-12-18T13:55:33.745Z,1025.92
2023-12-18T13:56:36.985Z,1025.94
2023-12-18T13:57:49.829Z,1025.88
2023-12-18T13:58:53.247Z,1025.8
2023-12-18T13:59:56.511Z,1025.78
2023-12-18T14:01:00.034Z,1025.8
2023-12-18T14:02:03.404Z,1025.78
2023-12-18T14:04:10.630Z,1025.8
2023-12-18T14:05:15.977Z,1025.8
2023-12-18T14:08:29.006Z,1025.92
2023-12-18T14:09:32.432Z,1025.98
2023-12-18T14:10:35.770Z,1026
2023-12-18T14:11:39.049Z,1025.98
2023-12-18T14:12:43.574Z,1025.9
2023-12-18T14:13:47.140Z,1025.92
2023-12-18T14:14:50.554Z,1025.8
2023-12-18T14:15:54.162Z,1025.78
2023-12-18T14:16:57.497Z,1025.92
2023-12-18T14:18:01.056Z,1025.94
2023-12-18T14:21:11.693Z,1025.96
2023-12-18T14:22:16.535Z,1025.94
2023-12-18T14:24:23.038Z,1025.88
2023-12-18T14:25:26.461Z,1025.92
2023-12-18T14:26:29.773Z,1025.92
2023-12-18T14:27:34.090Z,1025.9
2023-12-18T14:28:37.820Z,1025.9
2023-12-18T14:29:41.151Z,1025.78
2023-12-18T14:30:44.773Z,1025.88
2023-12-18T14:31:48.730Z,1025.88
2023-12-18T14:32:52.437Z,1025.88
2023-12-18T14:33:56.264Z,1025.88
2023-12-18T14:34:59.978Z,1025.74
2023-12-18T14:36:03.343Z,1025.72
2023-12-18T14:37:06.562Z,1025.66
2023-12-18T14:38:09.842Z,1025.62
2023-12-18T14:39:13.238Z,1025.66
2023-12-18T14:40:16.552Z,1025.62
2023-12-18T14:41:19.843Z,1025.64
2023-12-18T14:42:23.781Z,1025.6
2023-12-18T14:43:29.060Z,1025.62
2023-12-18T14:44:34.058Z,1025.64
2023-12-18T14:45:37.453Z,1025.66
2023-12-18T14:46:40.977Z,1025.66
2023-12-18T14:47:44.468Z,1025.56
2023-12-18T14:48:48.392Z,1025.5
2023-12-18T14:49:52.176Z,1025.46
2023-12-18T14:50:55.580Z,1025.46
2023-12-18T14:51:59.001Z,1025.56
2023-12-18T14:53:02.409Z,1025.64
2023-12-18T14:56:12.217Z,1025.58
2023-12-18T14:57:15.696Z,1025.56
2023-12-18T14:59:22.428Z,1025.64
2023-12-18T15:00:25.861Z,1025.64
2023-12-18T15:01:29.229Z,1025.64
2023-12-18T15:02:32.843Z,1025.64
2023-12-18T15:03:36.540Z,1025.62
2023-12-18T15:04:41.428Z,1025.56
2023-12-18T15:05:46.440Z,1025.64
2023-12-18T15:06:50.128Z,1025.56
2023-12-18T15:07:55.443Z,1025.56
2023-12-18T15:08:59.359Z,1025.52
2023-12-18T15:10:03.257Z,1025.52
2023-12-18T15:11:06.916Z,1025.58
2023-12-18T15:12:10.155Z,1025.56
2023-12-18T15:13:13.566Z,1025.52
2023-12-18T15:14:17.039Z,1025.46
2023-12-18T15:15:20.666Z,1025.46
2023-12-18T15:16:23.957Z,1025.44
2023-12-18T15:17:27.428Z,1025.46
2023-12-18T15:18:31.095Z,1025.42
2023-12-18T15:19:34.711Z,1025.36
2023-12-18T15:20:38.128Z,1025.38
2023-12-18T15:21:41.542Z,1025.36
2023-12-18T15:22:45.663Z,1025.36
2023-12-18T15:23:49.053Z,1025.34
2023-12-18T15:24:52.447Z,1025.31